sensor_id;sensor_type;location;lat;lon;timestamp;pressure;altitude;pressure_sealevel;temperature;humidity
54439;BME280;40347;53.848;27.498;2022-08-21T00:02:51;1013.2;;;19.7;69.2
54439;BME280;40347;53.848;27.498;2022-08-21T00:07:50;1013.3;;;19.6;69.7
54439;BME280;40347;53.848;27.498;2022-08-21T00:12:56;1013.3;;;19.5;69.8
54439;BME280;40347;53.848;27.498;2022-08-21T00:18:10;1013.2;;;19.6;69.9
54439;BME280;40347;53.848;27.498;2022-08-21T00:23:00;1013.2;;;19.5;69.8
54439;BME280;40347;53.848;27.498;2022-08-21T00:27:56;1013.2;;;19.6;69.8
54439;BME280;40347;53.848;27.498;2022-08-21T00:33:08;1013.2;;;19.5;69.9
54439;BME280;40347;53.848;27.498;2022-08-21T00:37:50;1013.2;;;19.6;69.7
54439;BME280;40347;53.848;27.498;2022-08-21T00:42:50;1013.2;;;19.6;69.6
54439;BME280;40347;53.848;27.498;2022-08-21T00:48:00;1013.1;;;19.6;69.7
54439;BME280;40347;53.848;27.498;2022-08-21T00:52:50;1013.1;;;19.5;69.8
54439;BME280;40347;53.848;27.498;2022-08-21T00:57:57;1013.1;;;19.5;69.8
54439;BME280;40347;53.848;27.498;2022-08-21T01:02:56;1013.1;;;19.5;69.9
54439;BME280;40347;53.848;27.498;2022-08-21T01:08:00;1013;;;19.4;69.7
54439;BME280;40347;53.848;27.498;2022-08-21T01:13:00;1013;;;19.3;69.8
54439;BME280;40347;53.848;27.498;2022-08-21T01:17:50;1013;;;19.1;70.4
54439;BME280;40347;53.848;27.498;2022-08-21T01:22:56;1013;;;18.9;71.1
54439;BME280;40347;53.848;27.498;2022-08-21T01:27:51;1013;;;18.9;71.2
54439;BME280;40347;53.848;27.498;2022-08-21T01:32:58;1013.1;;;18.7;71.7
54439;BME280;40347;53.848;27.498;2022-08-21T01:38:04;1013.1;;;18.6;72
54439;BME280;40347;53.848;27.498;2022-08-21T01:42:56;1013.1;;;18.5;72.3
54439;BME280;40347;53.848;27.498;2022-08-21T01:47:58;1013.1;;;18.5;72.5
54439;BME280;40347;53.848;27.498;2022-08-21T01:53:04;1013.1;;;18.5;72.7
54439;BME280;40347;53.848;27.498;2022-08-21T01:58:10;1013.1;;;18.6;72.4
54439;BME280;40347;53.848;27.498;2022-08-21T02:02:50;1013.1;;;18.8;72.2
54439;BME280;40347;53.848;27.498;2022-08-21T02:07:50;1013.1;;;18.8;71.6
54439;BME280;40347;53.848;27.498;2022-08-21T02:12:50;1013.1;;;18.9;71.5
54439;BME280;40347;53.848;27.498;2022-08-21T02:17:59;1013.1;;;19;71.3
54439;BME280;40347;53.848;27.498;2022-08-21T02:22:50;1013;;;19;71.2
54439;BME280;40347;53.848;27.498;2022-08-21T02:27:50;1013;;;19.1;71
54439;BME280;40347;53.848;27.498;2022-08-21T02:32:50;1013;;;19.1;70.9
54439;BME280;40347;53.848;27.498;2022-08-21T02:37:52;1013.1;;;19;70.8
54439;BME280;40347;53.848;27.498;2022-08-21T02:42:50;1013.1;;;19;70.9
54439;BME280;40347;53.848;27.498;2022-08-21T02:48:03;1013.1;;;19.1;70.9
54439;BME280;40347;53.848;27.498;2022-08-21T02:52:50;1013.2;;;19;71.2
54439;BME280;40347;53.848;27.498;2022-08-21T02:58:00;1013.2;;;19;71
54439;BME280;40347;53.848;27.498;2022-08-21T03:02:56;1013.2;;;19;71
54439;BME280;40347;53.848;27.498;2022-08-21T03:08:05;1013.2;;;19.1;70.8
54439;BME280;40347;53.848;27.498;2022-08-21T03:12:50;1013.2;;;19.1;70.8
54439;BME280;40347;53.848;27.498;2022-08-21T03:17:50;1013.3;;;19.2;70.6
54439;BME280;40347;53.848;27.498;2022-08-21T03:22:58;1013.3;;;19.1;70.5
54439;BME280;40347;53.848;27.498;2022-08-21T03:28:07;1013.3;;;19.1;70.2
54439;BME280;40347;53.848;27.498;2022-08-21T03:32:59;1013.4;;;19;70.6
54439;BME280;40347;53.848;27.498;2022-08-21T03:37:56;1013.4;;;18.9;70.8
54439;BME280;40347;53.848;27.498;2022-08-21T03:42:50;1013.4;;;18.9;70.9
54439;BME280;40347;53.848;27.498;2022-08-21T03:48:08;1013.5;;;19;70.7
54439;BME280;40347;53.848;27.498;2022-08-21T03:52:56;1013.4;;;19;70.8
54439;BME280;40347;53.848;27.498;2022-08-21T03:58:08;1013.4;;;19.1;70.5
54439;BME280;40347;53.848;27.498;2022-08-21T04:02:50;1013.3;;;19.1;70.4
54439;BME280;40347;53.848;27.498;2022-08-21T04:08:01;1013.3;;;19.2;70.1
54439;BME280;40347;53.848;27.498;2022-08-21T04:12:58;1013.3;;;19.4;69.8
54439;BME280;40347;53.848;27.498;2022-08-21T04:17:50;1013.4;;;19.5;69.5
54439;BME280;40347;53.848;27.498;2022-08-21T04:22:58;1013.4;;;19.4;69.5
54439;BME280;40347;53.848;27.498;2022-08-21T04:28:08;1013.4;;;19.3;69.5
54439;BME280;40347;53.848;27.498;2022-08-21T04:33:10;1013.4;;;19.1;70.1
54439;BME280;40347;53.848;27.498;2022-08-21T04:37:51;1013.4;;;19;70.5
54439;BME280;40347;53.848;27.498;2022-08-21T04:42:52;1013.5;;;19;70.7
54439;BME280;40347;53.848;27.498;2022-08-21T04:47:51;1013.5;;;19.1;70.8
54439;BME280;40347;53.848;27.498;2022-08-21T04:52:58;1013.5;;;19.3;70.2
54439;BME280;40347;53.848;27.498;2022-08-21T04:57:56;1013.4;;;19.5;69.5
54439;BME280;40347;53.848;27.498;2022-08-21T05:02:50;1013.3;;;19.6;69
54439;BME280;40347;53.848;27.498;2022-08-21T05:07:50;1013.4;;;19.8;68.8
54439;BME280;40347;53.848;27.498;2022-08-21T05:12:58;1013.4;;;19.9;68.3
54439;BME280;40347;53.848;27.498;2022-08-21T05:17:50;1013.3;;;20.1;68
54439;BME280;40347;53.848;27.498;2022-08-21T05:22:58;1013.3;;;20.1;67.7
54439;BME280;40347;53.848;27.498;2022-08-21T05:28:10;1013.3;;;20.2;67.6
54439;BME280;40347;53.848;27.498;2022-08-21T05:32:55;1013.2;;;20.2;67.6
54439;BME280;40347;53.848;27.498;2022-08-21T05:37:58;1013.2;;;20.2;67.5
54439;BME280;40347;53.848;27.498;2022-08-21T05:42:50;1013.2;;;20.4;67.1
54439;BME280;40347;53.848;27.498;2022-08-21T05:47:50;1013.2;;;20.6;66.6
54439;BME280;40347;53.848;27.498;2022-08-21T05:52:58;1013.2;;;20.7;66.1
54439;BME280;40347;53.848;27.498;2022-08-21T05:58:06;1013.1;;;20.8;65.8
54439;BME280;40347;53.848;27.498;2022-08-21T06:02:50;1013.1;;;21;65.6
54439;BME280;40347;53.848;27.498;2022-08-21T06:08:00;1013.1;;;21.1;65.3
54439;BME280;40347;53.848;27.498;2022-08-21T06:13:00;1013.1;;;21.4;64.8
54439;BME280;40347;53.848;27.498;2022-08-21T06:18:00;1013.1;;;21.8;63.7
54439;BME280;40347;53.848;27.498;2022-08-21T06:22:56;1013.1;;;21.9;62.9
54439;BME280;40347;53.848;27.498;2022-08-21T06:27:50;1013;;;21.9;62.8
54439;BME280;40347;53.848;27.498;2022-08-21T06:32:50;1012.9;;;22.1;62.7
54439;BME280;40347;53.848;27.498;2022-08-21T06:37:50;1012.8;;;22.4;61.9
54439;BME280;40347;53.848;27.498;2022-08-21T06:42:58;1012.8;;;22.6;61.1
54439;BME280;40347;53.848;27.498;2022-08-21T06:47:50;1012.7;;;22.4;60.9
54439;BME280;40347;53.848;27.498;2022-08-21T06:52:57;1012.7;;;22.3;61.6
54439;BME280;40347;53.848;27.498;2022-08-21T06:57:58;1012.6;;;22.3;61.5
54439;BME280;40347;53.848;27.498;2022-08-21T07:02:50;1012.5;;;22.2;61.5
54439;BME280;40347;53.848;27.498;2022-08-21T07:07:50;1012.5;;;22.1;62.1
54439;BME280;40347;53.848;27.498;2022-08-21T07:12:50;1012.5;;;22.3;61.7
54439;BME280;40347;53.848;27.498;2022-08-21T07:17:57;1012.4;;;22.4;61.6
54439;BME280;40347;53.848;27.498;2022-08-21T07:22:57;1012.4;;;22.5;61.2
54439;BME280;40347;53.848;27.498;2022-08-21T07:27:50;1012.4;;;22.5;61.3
54439;BME280;40347;53.848;27.498;2022-08-21T07:33:04;1012.4;;;22.5;61.2
54439;BME280;40347;53.848;27.498;2022-08-21T07:37:50;1012.4;;;22.6;61.1
54439;BME280;40347;53.848;27.498;2022-08-21T07:43:10;1012.4;;;22.9;60.3
54439;BME280;40347;53.848;27.498;2022-08-21T07:47:50;1012.4;;;23.4;59.2
54439;BME280;40347;53.848;27.498;2022-08-21T07:52:50;1012.4;;;23.9;58.5
54439;BME280;40347;53.848;27.498;2022-08-21T07:57:50;1012.4;;;24.3;57.2
54439;BME280;40347;53.848;27.498;2022-08-21T08:02:50;1012.4;;;24.7;56.7
54439;BME280;40347;53.848;27.498;2022-08-21T08:07:50;1012.3;;;24.9;56
54439;BME280;40347;53.848;27.498;2022-08-21T08:12:50;1012.3;;;25.1;55.6
54439;BME280;40347;53.848;27.498;2022-08-21T08:17:58;1012.2;;;25.1;54.9
54439;BME280;40347;53.848;27.498;2022-08-21T08:22:50;1012.2;;;25.2;54.7
54439;BME280;40347;53.848;27.498;2022-08-21T08:27:50;1012.2;;;25.3;54.6
54439;BME280;40347;53.848;27.498;2022-08-21T08:32:58;1012.2;;;25.6;54.5
54439;BME280;40347;53.848;27.498;2022-08-21T08:37:58;1012.2;;;25.7;54.2
54439;BME280;40347;53.848;27.498;2022-08-21T08:42:50;1012.1;;;25.7;53.6
54439;BME280;40347;53.848;27.498;2022-08-21T08:47:52;1012.1;;;25.7;53.3
54439;BME280;40347;53.848;27.498;2022-08-21T08:52:57;1011.9;;;25.8;52.9
54439;BME280;40347;53.848;27.498;2022-08-21T08:57:58;1011.8;;;26;52.3
54439;BME280;40347;53.848;27.498;2022-08-21T09:02:52;1011.8;;;26.1;52.6
54439;BME280;40347;53.848;27.498;2022-08-21T09:13:01;1011.8;;;26.4;51.5
54439;BME280;40347;53.848;27.498;2022-08-21T09:17:57;1011.8;;;26.5;51.7
54439;BME280;40347;53.848;27.498;2022-08-21T09:23:04;1011.7;;;26.7;51.5
54439;BME280;40347;53.848;27.498;2022-08-21T09:28:07;1011.7;;;26.4;51.2
54439;BME280;40347;53.848;27.498;2022-08-21T09:32:50;1011.7;;;26.5;51.6
54439;BME280;40347;53.848;27.498;2022-08-21T09:37:52;1011.6;;;26.4;51.1
54439;BME280;40347;53.848;27.498;2022-08-21T09:42:57;1011.5;;;26.2;51.4
54439;BME280;40347;53.848;27.498;2022-08-21T09:48:07;1011.5;;;26;52
54439;BME280;40347;53.848;27.498;2022-08-21T09:52:51;1011.4;;;26.1;52.1
54439;BME280;40347;53.848;27.498;2022-08-21T09:57:50;1011.3;;;26.3;52
54439;BME280;40347;53.848;27.498;2022-08-21T10:03:08;1011.3;;;26.7;51.4
54439;BME280;40347;53.848;27.498;2022-08-21T10:08:15;1011.2;;;26.9;50.9
54439;BME280;40347;53.848;27.498;2022-08-21T10:12:56;1011.2;;;26.8;50.7
54439;BME280;40347;53.848;27.498;2022-08-21T10:17:52;1011.1;;;26.9;50.5
54439;BME280;40347;53.848;27.498;2022-08-21T10:22:57;1011.1;;;27;50.6
54439;BME280;40347;53.848;27.498;2022-08-21T10:27:54;1011;;;26.8;50.7
54439;BME280;40347;53.848;27.498;2022-08-21T10:38:03;1010.9;;;26.9;50.7
54439;BME280;40347;53.848;27.498;2022-08-21T10:43:08;1010.9;;;26.9;50
54439;BME280;40347;53.848;27.498;2022-08-21T10:47:53;1010.8;;;26.6;50.7
54439;BME280;40347;53.848;27.498;2022-08-21T10:54:21;1010.8;;;26.5;50.9
54439;BME280;40347;53.848;27.498;2022-08-21T10:58:07;1010.8;;;26.4;50.9
54439;BME280;40347;53.848;27.498;2022-08-21T11:03:11;1010.8;;;26.6;50.8
54439;BME280;40347;53.848;27.498;2022-08-21T11:08:02;1010.8;;;26.9;50.2
54439;BME280;40347;53.848;27.498;2022-08-21T11:12:52;1010.8;;;27.1;49.6
54439;BME280;40347;53.848;27.498;2022-08-21T11:17:52;1010.7;;;27.2;49.5
54439;BME280;40347;53.848;27.498;2022-08-21T11:23:03;1010.7;;;27.5;49.3
54439;BME280;40347;53.848;27.498;2022-08-21T11:27:52;1010.8;;;27.7;48.7
54439;BME280;40347;53.848;27.498;2022-08-21T11:33:06;1010.7;;;28.1;48.4
54439;BME280;40347;53.848;27.498;2022-08-21T11:42:55;1010.8;;;29;45.9
54439;BME280;40347;53.848;27.498;2022-08-21T11:47:54;1010.8;;;29.4;45.3
54439;BME280;40347;53.848;27.498;2022-08-21T11:53:02;1010.7;;;29.4;45.6
54439;BME280;40347;53.848;27.498;2022-08-21T11:58:03;1010.7;;;28.9;45.7
54439;BME280;40347;53.848;27.498;2022-08-21T12:03:13;1010.7;;;28.3;46.6
54439;BME280;40347;53.848;27.498;2022-08-21T12:07:59;1010.7;;;27.9;46.9
54439;BME280;40347;53.848;27.498;2022-08-21T12:12:50;1010.7;;;28;46.4
54439;BME280;40347;53.848;27.498;2022-08-21T12:17:59;1010.7;;;28.4;45.7
54439;BME280;40347;53.848;27.498;2022-08-21T12:22:52;1010.7;;;28.8;45.4
54439;BME280;40347;53.848;27.498;2022-08-21T12:27:51;1010.7;;;29.2;44.5
54439;BME280;40347;53.848;27.498;2022-08-21T12:33:00;1010.6;;;29.7;43
54439;BME280;40347;53.848;27.498;2022-08-21T12:38:12;1010.7;;;29.7;42.5
54439;BME280;40347;53.848;27.498;2022-08-21T12:42:59;1010.8;;;29.4;42.3
54439;BME280;40347;53.848;27.498;2022-08-21T12:47:59;1010.8;;;29;42.7
54439;BME280;40347;53.848;27.498;2022-08-21T12:52:55;1010.8;;;28.9;43.1
54439;BME280;40347;53.848;27.498;2022-08-21T12:57:50;1010.9;;;28.8;42.7
54439;BME280;40347;53.848;27.498;2022-08-21T13:03:00;1010.9;;;28.7;42.9
54439;BME280;40347;53.848;27.498;2022-08-21T13:07:50;1010.9;;;28.6;42.9
54439;BME280;40347;53.848;27.498;2022-08-21T13:12:59;1010.9;;;28.6;42.4
54439;BME280;40347;53.848;27.498;2022-08-21T13:17:58;1010.9;;;28.5;42.8
54439;BME280;40347;53.848;27.498;2022-08-21T13:22:50;1010.8;;;28.2;43.5
54439;BME280;40347;53.848;27.498;2022-08-21T13:27:59;1010.8;;;28;44.1
54439;BME280;40347;53.848;27.498;2022-08-21T13:32:51;1010.9;;;27.8;44.1
54439;BME280;40347;53.848;27.498;2022-08-21T13:37:50;1010.9;;;27.6;44.3
54439;BME280;40347;53.848;27.498;2022-08-21T13:43:00;1010.9;;;27.6;44.3
54439;BME280;40347;53.848;27.498;2022-08-21T13:47:50;1011;;;27.7;44.5
54439;BME280;40347;53.848;27.498;2022-08-21T13:52:59;1011;;;27.5;44.7
54439;BME280;40347;53.848;27.498;2022-08-21T13:58:05;1011;;;27.1;45.1
54439;BME280;40347;53.848;27.498;2022-08-21T14:03:01;1011;;;26.8;45.3
54439;BME280;40347;53.848;27.498;2022-08-21T14:08:03;1011;;;26.5;45.6
54439;BME280;40347;53.848;27.498;2022-08-21T14:12:51;1011.1;;;26.4;45.7
54439;BME280;40347;53.848;27.498;2022-08-21T14:18:07;1011.1;;;26.5;45.8
54439;BME280;40347;53.848;27.498;2022-08-21T14:22:50;1011.1;;;26.5;46
54439;BME280;40347;53.848;27.498;2022-08-21T14:27:51;1011.1;;;26.4;46
54439;BME280;40347;53.848;27.498;2022-08-21T14:33:00;1011.1;;;26.4;45.8
54439;BME280;40347;53.848;27.498;2022-08-21T14:37:50;1011.1;;;26.3;45.8
54439;BME280;40347;53.848;27.498;2022-08-21T14:43:00;1011.1;;;26.2;46
54439;BME280;40347;53.848;27.498;2022-08-21T14:47:50;1011.1;;;26.1;46.4
54439;BME280;40347;53.848;27.498;2022-08-21T14:53:04;1011;;;26;46.7
54439;BME280;40347;53.848;27.498;2022-08-21T14:57:50;1011;;;25.9;47
54439;BME280;40347;53.848;27.498;2022-08-21T15:02:51;1011;;;25.9;47.1
54439;BME280;40347;53.848;27.498;2022-08-21T15:07:50;1011;;;25.9;47.2
54439;BME280;40347;53.848;27.498;2022-08-21T15:12:58;1011.1;;;25.8;47.5
54439;BME280;40347;53.848;27.498;2022-08-21T15:17:50;1011.1;;;25.8;47.9
54439;BME280;40347;53.848;27.498;2022-08-21T15:22:58;1011.2;;;25.8;48.1
54439;BME280;40347;53.848;27.498;2022-08-21T15:27:50;1011.1;;;25.7;48.5
54439;BME280;40347;53.848;27.498;2022-08-21T15:33:00;1011.1;;;25.6;48.6
54439;BME280;40347;53.848;27.498;2022-08-21T15:38:10;1011.1;;;25.5;48.9
54439;BME280;40347;53.848;27.498;2022-08-21T15:43:18;1011.1;;;25.5;49.1
54439;BME280;40347;53.848;27.498;2022-08-21T15:47:58;1011.2;;;25.5;49.3
54439;BME280;40347;53.848;27.498;2022-08-21T15:53:08;1011.2;;;25.6;49.4
54439;BME280;40347;53.848;27.498;2022-08-21T15:57:51;1011.2;;;25.5;49.7
54439;BME280;40347;53.848;27.498;2022-08-21T16:02:52;1011.2;;;25.5;49.6
54439;BME280;40347;53.848;27.498;2022-08-21T16:07:50;1011.2;;;25.3;50.1
54439;BME280;40347;53.848;27.498;2022-08-21T16:13:03;1011.2;;;25.2;50.4
54439;BME280;40347;53.848;27.498;2022-08-21T16:17:50;1011.2;;;25.1;50.8
54439;BME280;40347;53.848;27.498;2022-08-21T16:22:51;1011.2;;;25.1;51
54439;BME280;40347;53.848;27.498;2022-08-21T16:27:51;1011.2;;;24.9;51.6
54439;BME280;40347;53.848;27.498;2022-08-21T16:32:56;1011.2;;;24.9;51.8
54439;BME280;40347;53.848;27.498;2022-08-21T16:37:50;1011.3;;;24.7;52.5
54439;BME280;40347;53.848;27.498;2022-08-21T16:42:50;1011.3;;;24.5;53.3
54439;BME280;40347;53.848;27.498;2022-08-21T16:48:00;1011.3;;;24.4;53.9
54439;BME280;40347;53.848;27.498;2022-08-21T16:52:50;1011.3;;;24.4;54.3
54439;BME280;40347;53.848;27.498;2022-08-21T16:57:50;1011.3;;;24.2;54.9
54439;BME280;40347;53.848;27.498;2022-08-21T17:02:52;1011.3;;;24.1;55.6
54439;BME280;40347;53.848;27.498;2022-08-21T17:08:00;1011.3;;;23.9;56.8
54439;BME280;40347;53.848;27.498;2022-08-21T17:12:52;1011.3;;;23.6;58.2
54439;BME280;40347;53.848;27.498;2022-08-21T17:17:58;1011.3;;;23.4;59.1
54439;BME280;40347;53.848;27.498;2022-08-21T17:22:50;1011.4;;;23.3;59.6
54439;BME280;40347;53.848;27.498;2022-08-21T17:28:15;1011.4;;;23.2;60.3
54439;BME280;40347;53.848;27.498;2022-08-21T17:33:06;1011.4;;;23.1;60.2
54439;BME280;40347;53.848;27.498;2022-08-21T17:38:07;1011.4;;;23;60.5
54439;BME280;40347;53.848;27.498;2022-08-21T17:42:50;1011.5;;;23;61.3
54439;BME280;40347;53.848;27.498;2022-08-21T17:47:50;1011.5;;;23;60.8
54439;BME280;40347;53.848;27.498;2022-08-21T17:52:50;1011.5;;;23;60.9
54439;BME280;40347;53.848;27.498;2022-08-21T17:58:00;1011.5;;;23;61.2
54439;BME280;40347;53.848;27.498;2022-08-21T18:02:56;1011.6;;;22.9;61.2
54439;BME280;40347;53.848;27.498;2022-08-21T18:07:56;1011.5;;;22.9;61.3
54439;BME280;40347;53.848;27.498;2022-08-21T18:12:58;1011.5;;;22.8;61.1
54439;BME280;40347;53.848;27.498;2022-08-21T18:17:50;1011.5;;;22.8;61.3
54439;BME280;40347;53.848;27.498;2022-08-21T18:22:50;1011.5;;;22.7;60.8
54439;BME280;40347;53.848;27.498;2022-08-21T18:27:50;1011.6;;;22.7;60.9
54439;BME280;40347;53.848;27.498;2022-08-21T18:32:58;1011.5;;;22.6;61
54439;BME280;40347;53.848;27.498;2022-08-21T18:37:58;1011.6;;;22.7;60.9
54439;BME280;40347;53.848;27.498;2022-08-21T18:42:59;1011.6;;;22.7;61.2
54439;BME280;40347;53.848;27.498;2022-08-21T18:47:51;1011.7;;;22.7;60.9
54439;BME280;40347;53.848;27.498;2022-08-21T18:53:00;1011.7;;;22.8;60.6
54439;BME280;40347;53.848;27.498;2022-08-21T18:57:51;1011.7;;;22.8;60.8
54439;BME280;40347;53.848;27.498;2022-08-21T19:02:58;1011.7;;;22.8;60.7
54439;BME280;40347;53.848;27.498;2022-08-21T19:07:50;1011.7;;;22.8;60.5
54439;BME280;40347;53.848;27.498;2022-08-21T19:12:50;1011.8;;;22.8;60.4
54439;BME280;40347;53.848;27.498;2022-08-21T19:17:51;1011.8;;;22.9;60.1
54439;BME280;40347;53.848;27.498;2022-08-21T19:22:58;1011.8;;;22.9;59.9
54439;BME280;40347;53.848;27.498;2022-08-21T19:27:58;1011.8;;;22.8;59.9
54439;BME280;40347;53.848;27.498;2022-08-21T19:32:58;1011.8;;;22.8;59.8
54439;BME280;40347;53.848;27.498;2022-08-21T19:37:50;1011.8;;;22.8;59.5
54439;BME280;40347;53.848;27.498;2022-08-21T19:42:50;1011.8;;;22.7;59.5
54439;BME280;40347;53.848;27.498;2022-08-21T19:47:50;1011.8;;;22.7;59.7
54439;BME280;40347;53.848;27.498;2022-08-21T19:53:06;1011.8;;;22.7;59.6
54439;BME280;40347;53.848;27.498;2022-08-21T19:57:51;1011.8;;;22.5;59.8
54439;BME280;40347;53.848;27.498;2022-08-21T20:02:50;1011.8;;;22.5;59.7
54439;BME280;40347;53.848;27.498;2022-08-21T20:07:50;1011.8;;;22.4;60
54439;BME280;40347;53.848;27.498;2022-08-21T20:13:00;1011.8;;;22.4;60
54439;BME280;40347;53.848;27.498;2022-08-21T20:17:58;1011.9;;;22.3;60
54439;BME280;40347;53.848;27.498;2022-08-21T20:22:58;1011.9;;;22.3;60.2
54439;BME280;40347;53.848;27.498;2022-08-21T20:27:50;1011.9;;;22.2;60.7
54439;BME280;40347;53.848;27.498;2022-08-21T20:32:50;1011.9;;;22.1;60.9
54439;BME280;40347;53.848;27.498;2022-08-21T20:37:50;1011.9;;;22.1;60.7
54439;BME280;40347;53.848;27.498;2022-08-21T20:42:51;1011.9;;;22;61.2
54439;BME280;40347;53.848;27.498;2022-08-21T20:47:51;1011.9;;;22;61.3
54439;BME280;40347;53.848;27.498;2022-08-21T20:53:13;1011.9;;;21.9;61.5
54439;BME280;40347;53.848;27.498;2022-08-21T20:57:55;1011.9;;;21.8;61.7
54439;BME280;40347;53.848;27.498;2022-08-21T21:02:53;1012;;;21.7;62.2
54439;BME280;40347;53.848;27.498;2022-08-21T21:08:11;1012;;;21.8;62
54439;BME280;40347;53.848;27.498;2022-08-21T21:13:00;1012;;;21.7;62.3
54439;BME280;40347;53.848;27.498;2022-08-21T21:17:57;1012;;;21.7;62.2
54439;BME280;40347;53.848;27.498;2022-08-21T21:23:11;1012.1;;;21.6;62.4
54439;BME280;40347;53.848;27.498;2022-08-21T21:27:56;1012.2;;;21.5;62.6
54439;BME280;40347;53.848;27.498;2022-08-21T21:32:50;1012.2;;;21.4;63.1
54439;BME280;40347;53.848;27.498;2022-08-21T21:37:51;1012.2;;;21.5;63.1
54439;BME280;40347;53.848;27.498;2022-08-21T21:43:04;1012.3;;;21.4;63.4
54439;BME280;40347;53.848;27.498;2022-08-21T21:53:15;1012.3;;;21.4;63
54439;BME280;40347;53.848;27.498;2022-08-21T21:58:15;1012.3;;;21.4;63.2
54439;BME280;40347;53.848;27.498;2022-08-21T22:03:14;1012.3;;;21.3;63.4
54439;BME280;40347;53.848;27.498;2022-08-21T22:07:53;1012.3;;;21.3;63.4
54439;BME280;40347;53.848;27.498;2022-08-21T22:13:02;1012.3;;;21.3;63.6
54439;BME280;40347;53.848;27.498;2022-08-21T22:18:03;1012.3;;;21.3;63.6
54439;BME280;40347;53.848;27.498;2022-08-21T22:22:50;1012.3;;;21.2;63.8
54439;BME280;40347;53.848;27.498;2022-08-21T22:27:55;1012.2;;;21.1;64.1
54439;BME280;40347;53.848;27.498;2022-08-21T22:33:00;1012.2;;;21.1;64.1
54439;BME280;40347;53.848;27.498;2022-08-21T22:37:52;1012.3;;;21.1;64
54439;BME280;40347;53.848;27.498;2022-08-21T22:43:02;1012.3;;;21;64.3
54439;BME280;40347;53.848;27.498;2022-08-21T22:48:02;1012.3;;;21;64.2
54439;BME280;40347;53.848;27.498;2022-08-21T22:53:08;1012.3;;;20.9;64.3
54439;BME280;40347;53.848;27.498;2022-08-21T22:58:02;1012.3;;;20.9;64.5
54439;BME280;40347;53.848;27.498;2022-08-21T23:03:00;1012.3;;;20.8;64.6
54439;BME280;40347;53.848;27.498;2022-08-21T23:08:33;1012.3;;;20.8;64.6
54439;BME280;40347;53.848;27.498;2022-08-21T23:13:12;1012.3;;;20.7;64.8
54439;BME280;40347;53.848;27.498;2022-08-21T23:17:56;1012.3;;;20.6;64.9
54439;BME280;40347;53.848;27.498;2022-08-21T23:23:23;1012.3;;;20.5;65.3
54439;BME280;40347;53.848;27.498;2022-08-21T23:28:11;1012.3;;;20.4;65.7
54439;BME280;40347;53.848;27.498;2022-08-21T23:32:55;1012.4;;;20.2;66.5
54439;BME280;40347;53.848;27.498;2022-08-21T23:37:55;1012.4;;;20;66.7
54439;BME280;40347;53.848;27.498;2022-08-21T23:43:05;1012.4;;;19.9;66.8
54439;BME280;40347;53.848;27.498;2022-08-21T23:48:17;1012.4;;;19.8;67.3
54439;BME280;40347;53.848;27.498;2022-08-21T23:53:14;1012.4;;;19.6;67.6
54439;BME280;40347;53.848;27.498;2022-08-21T23:58:02;1012.4;;;19.6;67.9
